createdAt,value
2023-05-05T00:00:30.136Z,18.25
2023-05-05T00:01:30.087Z,18.22
2023-05-05T00:02:30.135Z,18.19
2023-05-05T00:03:30.126Z,18.22
2023-05-05T00:04:30.049Z,18.19
2023-05-05T00:05:30.037Z,18.17
2023-05-05T00:06:30.019Z,18.17
2023-05-05T00:07:29.997Z,18.18
2023-05-05T00:08:30.061Z,18.17
2023-05-05T00:09:29.965Z,18.13
2023-05-05T00:10:29.945Z,18.13
2023-05-05T00:11:29.925Z,18.06
2023-05-05T00:12:29.953Z,17.95
2023-05-05T00:13:29.929Z,17.97
2023-05-05T00:14:30.044Z,17.95
2023-05-05T00:15:29.878Z,17.94
2023-05-05T00:16:29.910Z,17.91
2023-05-05T00:17:29.897Z,17.88
2023-05-05T00:18:29.856Z,17.89
2023-05-05T00:19:29.815Z,17.88
2023-05-05T00:20:29.817Z,17.87
2023-05-05T00:21:29.823Z,17.85
2023-05-05T00:22:29.792Z,17.84
2023-05-05T00:23:29.795Z,17.81
2023-05-05T00:24:29.792Z,17.81
2023-05-05T00:25:29.739Z,17.81
2023-05-05T00:26:29.760Z,17.79
2023-05-05T00:27:29.718Z,17.73
2023-05-05T00:28:29.716Z,17.70
2023-05-05T00:29:29.702Z,17.66
2023-05-05T00:30:29.684Z,17.67
2023-05-05T00:31:29.721Z,17.62
2023-05-05T00:32:29.700Z,17.62
2023-05-05T00:33:29.653Z,17.54
2023-05-05T00:34:29.636Z,17.48
2023-05-05T00:35:29.635Z,17.47
2023-05-05T00:36:29.599Z,17.44
2023-05-05T00:37:29.588Z,17.40
2023-05-05T00:38:29.630Z,17.38
2023-05-05T00:39:29.564Z,17.35
2023-05-05T00:40:29.567Z,17.32
2023-05-05T00:41:29.537Z,17.32
2023-05-05T00:42:29.522Z,17.26
2023-05-05T00:43:29.536Z,17.29
2023-05-05T00:44:29.513Z,17.26
2023-05-05T00:45:29.477Z,17.25
2023-05-05T00:46:29.554Z,17.18
2023-05-05T00:47:29.470Z,17.18
2023-05-05T00:48:29.453Z,17.17
2023-05-05T00:49:29.479Z,17.13
2023-05-05T00:50:29.420Z,17.13
2023-05-05T00:51:29.499Z,17.13
2023-05-05T00:52:29.583Z,17.13
2023-05-05T00:53:29.365Z,17.15
2023-05-05T00:54:29.362Z,17.13
2023-05-05T00:55:29.363Z,17.11
2023-05-05T00:56:29.336Z,17.04
2023-05-05T00:57:29.312Z,17.04
2023-05-05T00:58:29.291Z,17.03
2023-05-05T00:59:29.282Z,17.03
2023-05-05T01:00:29.298Z,17.03
2023-05-05T01:01:29.297Z,17.03
2023-05-05T01:02:29.284Z,17.00
2023-05-05T01:03:29.313Z,16.99
2023-05-05T01:04:29.230Z,16.99
2023-05-05T01:05:29.221Z,17.00
2023-05-05T01:06:29.217Z,16.99
2023-05-05T01:07:29.173Z,16.96
2023-05-05T01:08:29.215Z,16.90
2023-05-05T01:09:29.165Z,16.86
2023-05-05T01:10:29.153Z,16.80
2023-05-05T01:11:29.123Z,16.75
2023-05-05T01:12:29.148Z,16.73
2023-05-05T01:13:29.108Z,16.73
2023-05-05T01:14:29.089Z,16.71
2023-05-05T01:15:29.068Z,16.75
2023-05-05T01:16:29.127Z,16.74
2023-05-05T01:17:29.078Z,16.70
2023-05-05T01:18:29.034Z,16.71
2023-05-05T01:19:29.024Z,16.68
2023-05-05T01:20:28.994Z,16.70
2023-05-05T01:21:28.984Z,16.68
2023-05-05T01:22:28.998Z,16.67
2023-05-05T01:23:28.971Z,16.65
2023-05-05T01:24:28.952Z,16.67
2023-05-05T01:25:28.933Z,16.63
2023-05-05T01:26:28.928Z,16.59
2023-05-05T01:27:28.917Z,16.56
2023-05-05T01:28:28.901Z,16.55
2023-05-05T01:29:28.867Z,16.56
2023-05-05T01:30:28.865Z,16.53
2023-05-05T01:31:28.875Z,16.56
2023-05-05T01:32:28.888Z,16.56
2023-05-05T01:33:28.827Z,16.59
2023-05-05T01:34:28.807Z,16.58
2023-05-05T01:35:28.851Z,16.60
2023-05-05T01:36:28.804Z,16.58
2023-05-05T01:37:28.758Z,16.58
2023-05-05T01:38:28.791Z,16.60
2023-05-05T01:39:28.752Z,16.56
2023-05-05T01:40:28.727Z,16.52
2023-05-05T01:41:28.728Z,16.49
2023-05-05T01:42:28.700Z,16.49
2023-05-05T01:43:28.703Z,16.50
2023-05-05T01:44:28.678Z,16.52
2023-05-05T01:45:28.696Z,16.56
2023-05-05T01:46:28.651Z,16.55
2023-05-05T01:47:28.646Z,16.56
2023-05-05T01:48:28.638Z,16.55
2023-05-05T01:49:28.629Z,16.55
2023-05-05T01:50:28.603Z,16.49
2023-05-05T01:51:28.567Z,16.50
2023-05-05T01:52:28.562Z,16.45
2023-05-05T01:53:28.581Z,16.37
2023-05-05T01:54:28.532Z,16.37
2023-05-05T01:55:28.520Z,16.38
2023-05-05T01:56:28.501Z,16.35
2023-05-05T01:57:28.504Z,16.35
2023-05-05T01:58:28.497Z,16.37
2023-05-05T01:59:28.449Z,16.34
2023-05-05T02:00:28.477Z,16.33
2023-05-05T02:01:28.478Z,16.33
2023-05-05T02:02:28.519Z,16.33
2023-05-05T02:03:28.431Z,16.30
2023-05-05T02:04:28.477Z,16.27
2023-05-05T02:05:28.387Z,16.23
2023-05-05T02:06:28.375Z,16.18
2023-05-05T02:07:28.360Z,16.15
2023-05-05T02:08:28.357Z,16.14
2023-05-05T02:09:28.333Z,16.09
2023-05-05T02:10:28.341Z,16.06
2023-05-05T02:11:28.322Z,16.00
2023-05-05T02:12:28.300Z,16.01
2023-05-05T02:13:28.273Z,16.01
2023-05-05T02:14:28.267Z,15.99
2023-05-05T02:15:28.255Z,15.99
2023-05-05T02:16:28.237Z,15.99
2023-05-05T02:17:28.255Z,15.94
2023-05-05T02:18:28.207Z,15.96
2023-05-05T02:19:28.209Z,15.97
2023-05-05T02:20:28.251Z,15.94
2023-05-05T02:21:28.170Z,15.92
2023-05-05T02:22:28.216Z,15.89
2023-05-05T02:23:28.151Z,15.93
2023-05-05T02:24:28.125Z,15.94
2023-05-05T02:25:28.203Z,16.00
2023-05-05T02:26:28.109Z,16.01
2023-05-05T02:27:28.092Z,16.00
2023-05-05T02:28:28.089Z,16.00
2023-05-05T02:29:28.061Z,16.01
2023-05-05T02:30:28.058Z,16.01
2023-05-05T02:31:28.094Z,16.00
2023-05-05T02:32:28.051Z,15.99
2023-05-05T02:33:28.004Z,15.97
2023-05-05T02:34:28.004Z,15.89
2023-05-05T02:35:27.980Z,15.92
2023-05-05T02:36:27.984Z,15.92
2023-05-05T02:37:27.963Z,15.93
2023-05-05T02:38:27.920Z,15.99
2023-05-05T02:39:27.949Z,15.97
2023-05-05T02:40:27.925Z,16.01
2023-05-05T02:41:27.936Z,16.00
2023-05-05T02:42:27.882Z,16.01
2023-05-05T02:43:27.880Z,16.00
2023-05-05T02:44:27.853Z,16.01
2023-05-05T02:45:27.845Z,16.03
2023-05-05T02:46:27.894Z,16.06
2023-05-05T02:47:27.853Z,16.04
2023-05-05T02:48:27.796Z,16.07
2023-05-05T02:49:27.796Z,16.06
2023-05-05T02:50:27.765Z,16.09
2023-05-05T02:51:27.774Z,16.09
2023-05-05T02:52:27.746Z,16.11
2023-05-05T02:53:27.880Z,16.09
2023-05-05T02:54:27.720Z,16.14
2023-05-05T02:55:27.715Z,16.12
2023-05-05T02:56:27.714Z,16.11
2023-05-05T02:57:27.709Z,16.15
2023-05-05T02:58:27.657Z,16.16
2023-05-05T02:59:27.664Z,16.20
2023-05-05T03:00:27.659Z,16.18
2023-05-05T03:01:27.732Z,16.22
2023-05-05T03:02:27.672Z,16.25
2023-05-05T03:03:27.672Z,16.26
2023-05-05T03:04:27.585Z,16.22
2023-05-05T03:05:27.577Z,16.22
2023-05-05T03:06:27.580Z,16.23
2023-05-05T03:07:27.563Z,16.25
2023-05-05T03:08:27.520Z,16.25
2023-05-05T03:09:27.525Z,16.22
2023-05-05T03:10:27.497Z,16.22
2023-05-05T03:11:27.512Z,16.20
2023-05-05T03:12:27.473Z,16.15
2023-05-05T03:13:27.461Z,16.16
2023-05-05T03:14:27.441Z,16.15
2023-05-05T03:15:27.444Z,16.15
2023-05-05T03:16:27.451Z,16.15
2023-05-05T03:17:27.488Z,16.12
2023-05-05T03:18:27.391Z,16.12
2023-05-05T03:19:27.382Z,16.12
2023-05-05T03:20:27.378Z,16.11
2023-05-05T03:21:27.370Z,16.04
2023-05-05T03:22:27.346Z,15.99
2023-05-05T03:23:27.323Z,15.97
2023-05-05T03:24:27.305Z,15.93
2023-05-05T03:25:27.306Z,15.89
2023-05-05T03:26:27.295Z,15.85
2023-05-05T03:27:27.283Z,15.86
2023-05-05T03:28:27.262Z,15.86
2023-05-05T03:29:27.256Z,15.82
2023-05-05T03:30:27.220Z,15.82
2023-05-05T03:31:27.269Z,15.81
2023-05-05T03:32:27.230Z,15.81
2023-05-05T03:33:27.193Z,15.81
2023-05-05T03:34:27.186Z,15.79
2023-05-05T03:35:27.165Z,15.75
2023-05-05T03:36:29.006Z,15.68
2023-05-05T03:37:27.153Z,15.68
2023-05-05T03:38:27.111Z,15.66
2023-05-05T03:39:27.099Z,15.64
2023-05-05T03:40:36.372Z,15.59
2023-05-05T03:41:28.105Z,15.57
2023-05-05T03:42:27.068Z,15.51
2023-05-05T03:43:27.058Z,15.49
2023-05-05T03:44:27.049Z,15.49
2023-05-05T03:45:27.192Z,15.45
2023-05-05T03:46:27.032Z,15.48
2023-05-05T03:47:27.019Z,15.49
2023-05-05T03:48:26.989Z,15.48
2023-05-05T03:49:26.996Z,15.46
2023-05-05T03:50:26.950Z,15.45
2023-05-05T03:51:26.965Z,15.43
2023-05-05T03:52:26.924Z,15.42
2023-05-05T03:53:26.923Z,15.42
2023-05-05T03:54:26.915Z,15.43
2023-05-05T03:55:26.900Z,15.39
2023-05-05T03:56:26.898Z,15.39
2023-05-05T03:57:26.864Z,15.39
2023-05-05T03:58:26.848Z,15.39
2023-05-05T03:59:26.886Z,15.38
2023-05-05T04:00:26.827Z,15.36
2023-05-05T04:01:26.833Z,15.33
2023-05-05T04:02:26.977Z,15.35
2023-05-05T04:03:26.998Z,15.33
2023-05-05T04:04:26.857Z,15.35
2023-05-05T04:05:26.751Z,15.33
2023-05-05T04:06:26.752Z,15.33
2023-05-05T04:07:26.735Z,15.35
2023-05-05T04:08:26.710Z,15.33
2023-05-05T04:09:26.716Z,15.31
2023-05-05T04:10:26.692Z,15.30
2023-05-05T04:11:26.705Z,15.31
2023-05-05T04:12:26.676Z,15.28
2023-05-05T04:13:26.653Z,15.30
2023-05-05T04:14:26.638Z,15.33
2023-05-05T04:15:26.626Z,15.31
2023-05-05T04:16:26.686Z,15.30
2023-05-05T04:17:26.627Z,15.31
2023-05-05T04:18:26.585Z,15.33
2023-05-05T04:19:26.593Z,15.31
2023-05-05T04:20:26.573Z,15.30
2023-05-05T04:21:26.609Z,15.28
2023-05-05T04:22:26.521Z,15.30
2023-05-05T04:23:26.530Z,15.30
2023-05-05T04:24:26.517Z,15.31
2023-05-05T04:25:26.496Z,15.31
2023-05-05T04:26:26.494Z,15.35
2023-05-05T04:27:26.465Z,15.31
2023-05-05T04:28:26.469Z,15.33
2023-05-05T04:29:26.454Z,15.27
2023-05-05T04:30:26.420Z,15.28
2023-05-05T04:31:26.436Z,15.30
2023-05-05T04:32:26.418Z,15.27
2023-05-05T04:33:26.382Z,15.27
2023-05-05T04:34:26.362Z,15.30
2023-05-05T04:35:26.387Z,15.28
2023-05-05T04:36:26.366Z,15.28
2023-05-05T04:37:26.354Z,15.33
2023-05-05T04:38:26.336Z,15.31
2023-05-05T04:39:26.320Z,15.31
2023-05-05T04:40:26.326Z,15.33
2023-05-05T04:42:26.248Z,15.35
2023-05-05T04:43:26.245Z,15.39
2023-05-05T04:44:26.229Z,15.38
2023-05-05T04:45:26.251Z,15.38
2023-05-05T04:46:26.275Z,15.39
2023-05-05T04:47:26.207Z,15.41
2023-05-05T04:48:26.684Z,15.42
2023-05-05T04:49:26.697Z,15.43
2023-05-05T04:50:26.176Z,15.41
2023-05-05T04:51:26.154Z,15.45
2023-05-05T04:52:26.114Z,15.42
2023-05-05T04:53:26.666Z,15.42
2023-05-05T04:54:26.189Z,15.41
2023-05-05T04:55:26.548Z,15.38
2023-05-05T04:56:26.320Z,15.38
2023-05-05T04:57:26.348Z,15.42
2023-05-05T04:58:26.029Z,15.43
2023-05-05T04:59:26.023Z,15.42
2023-05-05T05:00:26.006Z,15.45
2023-05-05T05:01:26.026Z,15.45
2023-05-05T05:02:26.022Z,15.46
2023-05-05T05:03:26.067Z,15.48
2023-05-05T05:04:25.954Z,15.46
2023-05-05T05:05:25.947Z,15.48
2023-05-05T05:06:25.960Z,15.48
2023-05-05T05:07:25.961Z,15.46
2023-05-05T05:08:25.900Z,15.49
2023-05-05T05:09:25.899Z,15.51
2023-05-05T05:10:25.875Z,15.48
2023-05-05T05:11:25.882Z,15.51
2023-05-05T05:12:25.845Z,15.51
2023-05-05T05:13:25.936Z,15.52
2023-05-05T05:14:25.808Z,15.56
2023-05-05T05:15:25.802Z,15.57
2023-05-05T05:16:25.826Z,15.57
2023-05-05T05:17:25.832Z,15.57
2023-05-05T05:18:25.783Z,15.57
2023-05-05T05:19:25.755Z,15.59
2023-05-05T05:20:25.743Z,15.66
2023-05-05T05:21:25.744Z,15.61
2023-05-05T05:22:25.708Z,15.63
2023-05-05T05:23:25.694Z,15.66
2023-05-05T05:24:25.674Z,15.70
2023-05-05T05:25:25.667Z,15.70
2023-05-05T05:26:25.667Z,15.72
2023-05-05T05:27:25.637Z,15.72
2023-05-05T05:28:25.644Z,15.75
2023-05-05T05:29:25.625Z,15.74
2023-05-05T05:30:25.583Z,15.81
2023-05-05T05:31:25.642Z,15.82
2023-05-05T05:32:25.657Z,15.84
2023-05-05T05:33:25.590Z,15.81
2023-05-05T05:34:25.543Z,15.84
2023-05-05T05:35:25.532Z,15.78
2023-05-05T05:36:25.527Z,15.82
2023-05-05T05:37:25.531Z,15.86
2023-05-05T05:38:25.506Z,15.89
2023-05-05T05:39:25.476Z,15.89
2023-05-05T05:40:25.472Z,15.93
2023-05-05T05:41:25.499Z,15.92
2023-05-05T05:42:25.434Z,15.88
2023-05-05T05:43:25.415Z,15.86
2023-05-05T05:44:25.416Z,15.86
2023-05-05T05:45:25.404Z,15.92
2023-05-05T05:46:25.421Z,15.94
2023-05-05T05:47:25.475Z,15.97
2023-05-05T05:48:25.347Z,16.04
2023-05-05T05:49:25.342Z,16.04
2023-05-05T05:50:25.335Z,16.07
2023-05-05T05:51:25.329Z,16.04
2023-05-05T05:52:25.305Z,16.03
2023-05-05T05:53:25.284Z,16.06
2023-05-05T05:54:25.327Z,16.09
2023-05-05T05:55:25.277Z,16.15
2023-05-05T05:56:25.249Z,16.20
2023-05-05T05:57:25.228Z,16.23
2023-05-05T05:58:25.210Z,16.26
2023-05-05T05:59:25.200Z,16.30
2023-05-05T06:00:25.191Z,16.35
2023-05-05T06:01:25.218Z,16.37
2023-05-05T06:02:25.168Z,16.42
2023-05-05T06:03:25.320Z,16.48
2023-05-05T06:04:25.369Z,16.52
2023-05-05T06:05:25.139Z,16.50
2023-05-05T06:06:25.132Z,16.50
2023-05-05T06:07:25.089Z,16.52
2023-05-05T06:08:25.282Z,16.50
2023-05-05T06:09:25.069Z,16.58
2023-05-05T06:10:28.325Z,16.63
2023-05-05T06:11:25.040Z,16.63
2023-05-05T06:12:25.017Z,16.68
2023-05-05T06:13:25.009Z,16.73
2023-05-05T06:14:24.990Z,16.77
2023-05-05T06:15:25.000Z,16.83
2023-05-05T06:16:25.049Z,16.85
2023-05-05T06:17:24.965Z,16.92
2023-05-05T06:18:24.976Z,16.90
2023-05-05T06:19:24.931Z,16.92
2023-05-05T06:20:24.940Z,16.92
2023-05-05T06:21:24.900Z,17.04
2023-05-05T06:22:24.880Z,17.08
2023-05-05T06:23:24.869Z,17.13
2023-05-05T06:24:24.860Z,17.18
2023-05-05T06:25:24.864Z,17.26
2023-05-05T06:26:24.826Z,17.32
2023-05-05T06:27:24.834Z,17.36
2023-05-05T06:28:24.799Z,17.33
2023-05-05T06:29:24.792Z,17.41
2023-05-05T06:30:24.794Z,17.47
2023-05-05T06:31:24.791Z,17.48
2023-05-05T06:32:24.795Z,17.54
2023-05-05T06:33:24.750Z,17.55
2023-05-05T06:34:24.752Z,17.57
2023-05-05T06:35:24.739Z,17.63
2023-05-05T06:36:24.727Z,17.57
2023-05-05T06:37:24.672Z,17.63
2023-05-05T06:38:24.671Z,17.66
2023-05-05T06:39:24.660Z,17.69
2023-05-05T06:40:24.654Z,17.71
2023-05-05T06:41:24.654Z,17.73
2023-05-05T06:42:24.629Z,17.79
2023-05-05T06:43:24.596Z,17.81
2023-05-05T06:44:24.611Z,17.81
2023-05-05T06:45:24.584Z,17.87
2023-05-05T06:46:24.640Z,17.91
2023-05-05T06:47:24.560Z,17.95
2023-05-05T06:48:24.541Z,18.00
2023-05-05T06:49:24.525Z,17.97
2023-05-05T06:50:24.509Z,17.92
2023-05-05T06:51:24.514Z,17.94
2023-05-05T06:52:24.483Z,17.99
2023-05-05T06:53:24.461Z,17.95
2023-05-05T06:54:24.471Z,18.03
2023-05-05T06:55:24.439Z,18.04
2023-05-05T06:56:24.442Z,18.09
2023-05-05T06:57:24.412Z,18.10
2023-05-05T06:58:24.417Z,18.10
2023-05-05T06:59:24.391Z,18.10
2023-05-05T07:00:24.373Z,18.10
2023-05-05T07:01:24.485Z,18.19
2023-05-05T07:02:26.691Z,18.21
2023-05-05T07:03:24.372Z,18.27
2023-05-05T07:04:24.602Z,18.28
2023-05-05T07:05:24.337Z,18.34
2023-05-05T07:06:24.297Z,18.40
2023-05-05T07:07:24.286Z,18.46
2023-05-05T07:08:24.272Z,18.46
2023-05-05T07:09:24.257Z,18.43
2023-05-05T07:10:24.258Z,18.40
2023-05-05T07:11:24.237Z,18.37
2023-05-05T07:12:24.236Z,18.46
2023-05-05T07:13:24.216Z,18.47
2023-05-05T07:14:24.599Z,18.43
2023-05-05T07:15:29.243Z,18.40
2023-05-05T07:16:25.235Z,18.43
2023-05-05T07:17:24.175Z,18.43
2023-05-05T07:18:24.144Z,18.43
2023-05-05T07:19:24.136Z,18.44
2023-05-05T07:20:24.433Z,18.44
2023-05-05T07:21:24.113Z,18.42
2023-05-05T07:22:24.106Z,18.37
2023-05-05T07:23:24.083Z,18.43
2023-05-05T07:24:24.077Z,18.50
2023-05-05T07:25:24.061Z,18.58
2023-05-05T07:26:24.063Z,18.59
2023-05-05T07:27:24.043Z,18.62
2023-05-05T07:28:24.008Z,18.68
2023-05-05T07:29:23.985Z,18.79
2023-05-05T07:30:24.254Z,18.80
2023-05-05T07:31:23.964Z,18.87
2023-05-05T07:32:23.965Z,18.90
2023-05-05T07:33:23.946Z,18.83
2023-05-05T07:34:23.932Z,18.91
2023-05-05T07:35:23.911Z,18.92
2023-05-05T07:36:23.923Z,18.98
2023-05-05T07:37:24.054Z,18.98
2023-05-05T07:38:23.867Z,19.06
2023-05-05T07:39:23.854Z,19.08
2023-05-05T07:40:23.883Z,19.02
2023-05-05T07:41:23.830Z,19.08
2023-05-05T07:42:23.823Z,19.11
2023-05-05T07:43:23.787Z,19.10
2023-05-05T07:44:23.819Z,19.01
2023-05-05T07:45:23.792Z,18.92
2023-05-05T07:46:23.807Z,18.86
2023-05-05T07:47:23.748Z,18.87
2023-05-05T07:48:23.727Z,18.82
2023-05-05T07:49:23.727Z,18.84
2023-05-05T07:50:23.757Z,18.94
2023-05-05T07:51:23.719Z,18.97
2023-05-05T07:52:37.319Z,19.06
2023-05-05T07:53:24.659Z,19.13
2023-05-05T07:54:23.668Z,19.10
2023-05-05T07:55:23.625Z,19.02
2023-05-05T07:56:23.620Z,19.02
2023-05-05T07:57:23.604Z,18.98
2023-05-05T07:58:23.601Z,18.98
2023-05-05T07:59:23.598Z,18.99
2023-05-05T08:00:23.565Z,19.01
2023-05-05T08:01:23.545Z,19.10
2023-05-05T08:02:23.623Z,19.18
2023-05-05T08:03:23.653Z,19.13
2023-05-05T08:04:23.552Z,19.14
2023-05-05T08:05:23.520Z,19.21
2023-05-05T08:06:23.489Z,19.15
2023-05-05T08:07:23.466Z,19.05
2023-05-05T08:08:23.461Z,19.10
2023-05-05T08:09:23.439Z,19.14
2023-05-05T08:10:23.448Z,19.20
2023-05-05T08:11:23.410Z,19.25
2023-05-05T08:12:23.405Z,19.31
2023-05-05T08:13:23.383Z,19.32
2023-05-05T08:14:23.385Z,19.31
2023-05-05T08:15:23.370Z,19.33
2023-05-05T08:16:23.360Z,19.33
2023-05-05T08:17:23.386Z,19.33
2023-05-05T08:18:23.329Z,19.38
2023-05-05T08:19:28.737Z,19.35
2023-05-05T08:20:24.368Z,19.42
2023-05-05T08:21:23.297Z,19.51
2023-05-05T08:22:23.290Z,19.66
2023-05-05T08:23:23.271Z,19.73
2023-05-05T08:24:23.239Z,19.86
2023-05-05T08:25:23.219Z,19.88
2023-05-05T08:26:23.217Z,19.83
2023-05-05T08:27:23.208Z,19.80
2023-05-05T08:28:23.202Z,19.84
2023-05-05T08:29:23.171Z,19.75
2023-05-05T08:30:23.263Z,19.76
2023-05-05T08:31:23.217Z,19.83
2023-05-05T08:32:23.145Z,19.90
2023-05-05T08:33:23.122Z,19.73
2023-05-05T08:34:23.101Z,19.66
2023-05-05T08:35:23.113Z,19.70
2023-05-05T08:36:23.108Z,19.70
2023-05-05T08:37:23.074Z,19.83
2023-05-05T08:38:23.083Z,19.86
2023-05-05T08:39:23.072Z,19.88
2023-05-05T08:40:23.075Z,19.88
2023-05-05T08:41:23.022Z,19.90
2023-05-05T08:42:36.366Z,20.00
2023-05-05T08:43:24.043Z,20.05
2023-05-05T08:44:22.979Z,19.93
2023-05-05T08:45:22.982Z,19.90
2023-05-05T08:46:22.995Z,19.84
2023-05-05T08:47:22.935Z,19.80
2023-05-05T08:48:22.927Z,19.84
2023-05-05T08:49:22.901Z,19.86
2023-05-05T08:50:22.957Z,19.93
2023-05-05T08:51:22.919Z,19.98
2023-05-05T08:52:22.874Z,19.98
2023-05-05T08:53:22.851Z,20.03
2023-05-05T08:54:22.834Z,20.18
2023-05-05T08:55:22.852Z,20.20
2023-05-05T08:56:22.801Z,20.23
2023-05-05T08:57:22.784Z,20.30
2023-05-05T08:58:22.793Z,20.28
2023-05-05T08:59:22.793Z,20.33
2023-05-05T09:00:22.846Z,20.35
2023-05-05T09:01:22.811Z,20.27
2023-05-05T09:02:22.817Z,20.12
2023-05-05T09:03:22.742Z,19.97
2023-05-05T09:04:22.741Z,19.90
2023-05-05T09:05:22.690Z,19.90
2023-05-05T09:06:22.685Z,19.94
2023-05-05T09:07:22.652Z,20.05
2023-05-05T09:08:22.671Z,20.15
2023-05-05T09:09:22.638Z,20.20
2023-05-05T09:10:22.682Z,20.23
2023-05-05T09:11:22.625Z,20.18
2023-05-05T09:12:22.594Z,20.33
2023-05-05T09:13:22.593Z,20.47
2023-05-05T09:14:22.591Z,20.53
2023-05-05T09:15:22.539Z,20.56
2023-05-05T09:16:22.572Z,20.58
2023-05-05T09:17:22.528Z,20.56
2023-05-05T09:18:22.554Z,20.62
2023-05-05T09:19:22.478Z,20.62
2023-05-05T09:20:22.479Z,20.72
2023-05-05T09:21:22.463Z,20.66
2023-05-05T09:22:22.458Z,20.61
2023-05-05T09:23:22.468Z,20.68
2023-05-05T09:24:22.434Z,20.74
2023-05-05T09:25:22.440Z,20.68
2023-05-05T09:26:22.418Z,20.77
2023-05-05T09:27:22.406Z,20.80
2023-05-05T09:28:22.397Z,20.89
2023-05-05T09:29:22.367Z,20.87
2023-05-05T09:30:22.350Z,20.76
2023-05-05T09:31:22.404Z,20.80
2023-05-05T09:32:22.373Z,20.90
2023-05-05T09:33:22.304Z,20.95
2023-05-05T09:34:22.299Z,20.98
2023-05-05T09:35:22.294Z,20.93
2023-05-05T09:36:22.269Z,20.96
2023-05-05T09:37:22.266Z,20.90
2023-05-05T09:38:22.237Z,20.68
2023-05-05T09:39:22.235Z,20.69
2023-05-05T09:40:22.326Z,20.84
2023-05-05T09:41:22.193Z,21.04
2023-05-05T09:42:22.186Z,21.23
2023-05-05T09:43:22.177Z,21.36
2023-05-05T09:44:22.202Z,21.56
2023-05-05T09:45:22.158Z,21.76
2023-05-05T09:46:22.210Z,21.95
2023-05-05T09:47:29.443Z,22.04
2023-05-05T09:48:23.133Z,22.12
2023-05-05T09:49:22.101Z,22.14
2023-05-05T09:50:22.075Z,22.14
2023-05-05T09:51:22.158Z,22.19
2023-05-05T09:52:22.053Z,22.20
2023-05-05T09:53:22.027Z,22.13
2023-05-05T09:54:22.021Z,22.17
2023-05-05T09:55:22.002Z,22.19
2023-05-05T09:56:22.024Z,22.20
2023-05-05T09:57:21.969Z,22.17
2023-05-05T09:58:21.992Z,22.22
2023-05-05T09:59:21.959Z,22.17
2023-05-05T10:00:21.988Z,22.12
2023-05-05T10:01:21.980Z,21.95
2023-05-05T10:02:21.913Z,21.85
2023-05-05T10:03:21.895Z,21.85
2023-05-05T10:04:21.941Z,21.83
2023-05-05T10:05:21.957Z,21.75
2023-05-05T10:06:21.863Z,21.69
2023-05-05T10:07:21.851Z,21.71
2023-05-05T10:08:21.852Z,21.71
2023-05-05T10:09:21.812Z,21.79
2023-05-05T10:10:21.832Z,21.97
2023-05-05T10:11:21.788Z,22.16
2023-05-05T10:12:21.779Z,22.25
2023-05-05T10:13:21.753Z,22.35
2023-05-05T10:14:21.790Z,22.62
2023-05-05T10:15:21.744Z,22.68
2023-05-05T10:16:21.793Z,22.67
2023-05-05T10:17:21.704Z,22.93
2023-05-05T10:18:21.728Z,23.01
2023-05-05T10:19:21.685Z,23.27
2023-05-05T10:20:21.674Z,23.49
2023-05-05T10:21:21.669Z,23.60
2023-05-05T10:22:21.649Z,23.39
2023-05-05T10:23:21.644Z,23.27
2023-05-05T10:24:21.618Z,23.31
2023-05-05T10:25:21.598Z,23.35
2023-05-05T10:26:21.608Z,23.15
2023-05-05T10:27:21.569Z,22.94
2023-05-05T10:28:21.559Z,23.15
2023-05-05T10:29:21.548Z,23.49
2023-05-05T10:30:21.563Z,23.72
2023-05-05T10:31:26.543Z,23.98
2023-05-05T10:32:51.537Z,24.13
2023-05-05T10:34:21.522Z,24.24
2023-05-05T10:35:21.535Z,24.37
2023-05-05T10:36:21.472Z,24.57
2023-05-05T10:37:21.469Z,24.64
2023-05-05T10:38:21.441Z,24.45
2023-05-05T10:39:21.417Z,24.41
2023-05-05T10:40:21.408Z,24.23
2023-05-05T10:41:21.410Z,24.29
2023-05-05T10:42:21.389Z,24.16
2023-05-05T10:43:21.402Z,23.97
2023-05-05T10:44:21.363Z,23.77
2023-05-05T10:45:21.362Z,23.50
2023-05-05T10:46:21.513Z,23.42
2023-05-05T10:47:21.382Z,23.31
2023-05-05T10:48:21.312Z,23.07
2023-05-05T10:49:21.297Z,22.80
2023-05-05T10:50:21.263Z,22.57
2023-05-05T10:51:35.118Z,22.47
2023-05-05T10:52:22.252Z,22.44
2023-05-05T10:53:21.278Z,22.22
2023-05-05T10:54:21.345Z,22.04
2023-05-05T10:55:21.227Z,21.95
2023-05-05T10:56:21.204Z,21.94
2023-05-05T10:57:21.177Z,21.81
2023-05-05T10:58:21.174Z,21.81
2023-05-05T10:59:21.161Z,21.81
2023-05-05T11:00:21.138Z,21.67
2023-05-05T11:01:21.132Z,21.64
2023-05-05T11:02:21.124Z,21.57
2023-05-05T11:03:21.217Z,21.54
2023-05-05T11:04:21.159Z,21.53
2023-05-05T11:05:21.081Z,21.50
2023-05-05T11:06:21.055Z,21.56
2023-05-05T11:07:21.058Z,21.53
2023-05-05T11:08:21.046Z,21.54
2023-05-05T11:09:21.021Z,21.59
2023-05-05T11:10:21.292Z,21.64
2023-05-05T11:11:20.987Z,21.64
2023-05-05T11:12:20.996Z,21.69
2023-05-05T11:13:21.101Z,21.66
2023-05-05T11:14:20.940Z,21.64
2023-05-05T11:15:20.941Z,21.61
2023-05-05T11:16:20.924Z,21.53
2023-05-05T11:17:20.934Z,21.44
2023-05-05T11:18:20.888Z,21.45
2023-05-05T11:19:20.916Z,21.45
2023-05-05T11:20:20.857Z,21.42
2023-05-05T11:21:20.877Z,21.42
2023-05-05T11:22:20.866Z,21.35
2023-05-05T11:23:20.847Z,21.23
2023-05-05T11:24:20.816Z,21.13
2023-05-05T11:25:20.854Z,21.09
2023-05-05T11:26:20.793Z,21.01
2023-05-05T11:27:20.783Z,21.02
2023-05-05T11:28:20.751Z,20.86
2023-05-05T11:29:20.799Z,20.69
2023-05-05T11:30:20.729Z,20.46
2023-05-05T11:31:20.816Z,20.28
2023-05-05T11:32:20.701Z,19.87
2023-05-05T11:33:20.720Z,19.57
2023-05-05T11:34:20.673Z,19.39
2023-05-05T11:35:20.703Z,19.32
2023-05-05T11:36:20.661Z,19.31
2023-05-05T11:37:20.636Z,19.29
2023-05-05T11:38:20.640Z,19.33
2023-05-05T11:39:20.606Z,19.38
2023-05-05T11:40:20.598Z,19.40
2023-05-05T11:41:20.584Z,19.33
2023-05-05T11:42:20.578Z,19.35
2023-05-05T11:43:20.599Z,19.42
2023-05-05T11:44:20.544Z,19.53
2023-05-05T11:45:20.534Z,19.63
2023-05-05T11:46:20.562Z,19.75
2023-05-05T11:47:20.773Z,19.87
2023-05-05T11:48:20.504Z,19.95
2023-05-05T11:49:20.517Z,19.98
2023-05-05T11:50:20.460Z,20.06
2023-05-05T11:51:20.449Z,20.12
2023-05-05T11:52:20.444Z,20.09
2023-05-05T11:53:20.418Z,20.13
2023-05-05T11:54:20.408Z,20.23
2023-05-05T11:55:20.388Z,20.27
2023-05-05T11:56:20.417Z,20.31
2023-05-05T11:57:20.384Z,20.35
2023-05-05T11:58:20.356Z,20.41
2023-05-05T11:59:20.343Z,20.49
2023-05-05T12:00:20.336Z,20.50
2023-05-05T12:01:20.340Z,20.50
2023-05-05T12:02:20.342Z,20.49
2023-05-05T12:03:20.383Z,20.46
2023-05-05T12:04:20.300Z,20.39
2023-05-05T12:05:20.265Z,20.38
2023-05-05T12:06:20.250Z,20.31
2023-05-05T12:07:20.242Z,20.28
2023-05-05T12:08:20.212Z,20.27
2023-05-05T12:09:20.207Z,20.27
2023-05-05T12:10:20.266Z,20.24
2023-05-05T12:11:20.193Z,20.16
2023-05-05T12:12:20.170Z,20.15
2023-05-05T12:13:20.504Z,20.24
2023-05-05T12:14:20.146Z,20.31
2023-05-05T12:15:20.321Z,20.41
2023-05-05T12:16:20.165Z,20.41
2023-05-05T12:17:20.107Z,20.43
2023-05-05T12:18:20.089Z,20.51
2023-05-05T12:19:20.080Z,20.72
2023-05-05T12:20:20.067Z,20.86
2023-05-05T12:21:20.033Z,20.87
2023-05-05T12:22:20.034Z,20.91
2023-05-05T12:23:20.018Z,20.96
2023-05-05T12:24:20.033Z,20.96
2023-05-05T12:25:20.004Z,21.08
2023-05-05T12:26:19.966Z,21.13
2023-05-05T12:27:19.974Z,21.05
2023-05-05T12:28:19.944Z,20.99
2023-05-05T12:29:19.940Z,21.06
2023-05-05T12:30:19.952Z,21.06
2023-05-05T12:31:19.950Z,21.01
2023-05-05T12:32:19.928Z,20.95
2023-05-05T12:33:19.881Z,20.84
2023-05-05T12:34:19.846Z,20.72
2023-05-05T12:35:19.893Z,20.58
2023-05-05T12:36:19.836Z,20.31
2023-05-05T12:37:19.843Z,20.23
2023-05-05T12:38:19.807Z,20.23
2023-05-05T12:39:19.824Z,20.30
2023-05-05T12:40:19.779Z,20.38
2023-05-05T12:41:19.769Z,20.42
2023-05-05T12:42:19.756Z,20.49
2023-05-05T12:43:19.789Z,20.50
2023-05-05T12:44:19.725Z,20.54
2023-05-05T12:45:19.713Z,20.56
2023-05-05T12:46:19.732Z,20.62
2023-05-05T12:47:19.686Z,20.69
2023-05-05T12:48:19.730Z,20.74
2023-05-05T12:49:19.675Z,20.76
2023-05-05T12:50:19.647Z,20.80
2023-05-05T12:51:19.659Z,20.87
2023-05-05T12:52:19.651Z,20.83
2023-05-05T12:53:19.837Z,20.79
2023-05-05T12:54:19.605Z,20.81